Skelton, AK

8:37 AM AKDT on July 31, 2014 (GMT -0800)
Gulkana (PAGK) Elev 1578 ft | 62.16 °N, 145.46 °W | Change Station

Current weather conditions updated 44 minutes ago

Clear
Clear
52 °F
Feels Like 52 °F
N
8
Wind Variable Wind from South

Today is forecast to be Much Cooler than yesterday.

Today
High -- | Low -- °F
--% Chance of Precip.
Yesterday
High -- | Low -- °F
Precip. -- in
5:13 AM 10:34 PM
Waxing Crescent, 19% visible
Pressure 30.28 in
Visibility 10.0 miles
Clouds Clear
Dew Point 46 °F
Humidity 80%
Rainfall 0.00 in
Snow Depth Not available.
UV 1 out of 12
Pollen Not available.
Air Quality Not available.
Flu Activity Not available.
METAR PAGK 311553Z AUTO 18007KT 10SM CLR 11/08 A3029 RMK AO2 SLP254 T01110078 TSNO $

More Conditions Fewer Conditions

Pressure 30.28 in
Visibility 10.0 miles
Clouds Clear
Dew Point 46 °F
Humidity 80%
Rainfall 0.00 in
Snow Depth Not available.
UV 1 out of 12
Pollen Not available.
Air Quality Not available.
Flu Activity Not available.
METAR PAGK 311553Z AUTO 18007KT 10SM CLR 11/08 A3029 RMK AO2 SLP254 T01110078 TSNO $

More Conditions Fewer Conditions

10-Day Weather Forecast

Almanac

Astronomy

Jul. 31, 2014 Rise Set
Actual Time 5:13 AM AKDT 10:34 PM AKDT
Civil Twilight 4:01 AM AKDT 11:44 PM AKDT
Nautical Twilight 2:27 AM AKDT 1:22 AM AKDT
Astronomical Twilight Sun does not rise Sun does not rise
Moon 11:32 AM AKDT 11:03 PM AKDT
Length of Visible Light 19h 43m
Length of Day
17h 21m
Tomorrow will be 5m 29s shorter.
Waxing Crescent, 19% of the Moon is Illuminated
Today
Waxing Crescent
Aug 3
First Quarter
Aug 10
Full
Aug 17
Last Quarter
Aug 25
New

Today's Extremes

State Highs State Lows

Community

WunderPhotos

Upload Photos

1,739,368 photos uploaded!

WunderBlogs® & News

Nearby

Snow Depth

Station Depth Elevation
Moraine 0 in 2100 ft
Upper Tsaina River 0 in 1750 ft
Susitna Valley High 2 in 375 ft
Indian Pass 2 in 2300 ft
Point Mackenzie 1 in 200 ft

Earthquake Activity

City Distance Mag. Time & Date
No recent earthquake activity has been reported nearby.
Minimum magnitude displayed is 2.5.

Coastal Water Temperatures

Place Temperature
No Stations Reporting

Nearby Weather Stations

There are no personal weather stations in this area.